createdAt,value
2018-01-31T01:52:21.062Z,40.03
2018-01-31T01:54:34.178Z,39.97
2018-01-31T01:57:01.088Z,40.08
2018-01-31T01:59:29.059Z,42.83
2018-01-31T02:01:55.961Z,38.70
2018-01-31T02:04:23.650Z,42.10
2018-01-31T02:06:50.592Z,43.78
2018-01-31T02:09:17.513Z,44.10
2018-01-31T02:11:45.228Z,42.28
2018-01-31T02:14:12.140Z,43.08
2018-01-31T02:16:39.085Z,41.28
2018-01-31T02:19:05.987Z,42.62
2018-01-31T02:21:32.915Z,45.90
2018-01-31T02:23:59.818Z,43.55
2018-01-31T02:26:26.737Z,44.72
2018-01-31T02:28:54.411Z,42.13
2018-01-31T02:31:21.340Z,43.47
2018-01-31T02:33:49.016Z,43.63
2018-01-31T02:36:16.712Z,40.45
2018-01-31T02:39:09.272Z,44.70
2018-01-31T02:41:36.203Z,44.00
2018-01-31T02:44:03.107Z,44.10
2018-01-31T02:46:31.807Z,43.28
2018-01-31T02:48:58.716Z,43.70
2018-01-31T02:51:25.648Z,44.17
2018-01-31T02:53:52.555Z,41.33
2018-01-31T02:56:19.487Z,44.13
2018-01-31T02:58:46.392Z,45.03
2018-01-31T03:01:13.322Z,34.22
2018-01-31T03:03:40.231Z,45.38
2018-01-31T03:06:07.161Z,43.97
2018-01-31T03:08:34.067Z,44.25
2018-01-31T03:11:01.001Z,42.72
2018-01-31T03:13:27.904Z,44.38
2018-01-31T03:15:54.831Z,44.80
2018-01-31T03:18:21.740Z,46.20
2018-01-31T03:20:49.595Z,46.33
2018-01-31T03:23:16.504Z,48.42
2018-01-31T03:25:43.436Z,45.65
2018-01-31T03:28:10.344Z,43.42
2018-01-31T03:30:37.273Z,43.30
2018-01-31T03:33:04.188Z,46.30
2018-01-31T03:35:31.124Z,43.42
2018-01-31T03:37:58.900Z,47.88
2018-01-31T03:40:25.841Z,46.65
2018-01-31T03:42:52.764Z,45.10
2018-01-31T03:45:19.703Z,46.85
2018-01-31T03:47:47.556Z,43.95
2018-01-31T03:50:15.249Z,42.47
2018-01-31T03:52:42.156Z,43.85
2018-01-31T03:55:09.858Z,45.05
2018-01-31T03:57:36.771Z,45.42
2018-01-31T04:00:04.484Z,44.25
2018-01-31T04:02:31.396Z,46.70
2018-01-31T04:04:58.299Z,45.00
2018-01-31T04:07:25.227Z,45.97
2018-01-31T04:09:52.156Z,43.55
2018-01-31T04:12:19.090Z,43.50
2018-01-31T04:14:46.017Z,45.47
2018-01-31T04:17:12.957Z,41.45
2018-01-31T04:19:39.867Z,43.95
2018-01-31T04:22:06.800Z,43.95
2018-01-31T04:24:33.710Z,43.35
2018-01-31T04:27:00.644Z,46.17
2018-01-31T04:29:27.548Z,46.10
2018-01-31T04:31:54.488Z,44.75
2018-01-31T04:34:21.400Z,43.10
2018-01-31T04:36:48.305Z,40.50
2018-01-31T04:39:16.000Z,42.95
2018-01-31T04:41:42.908Z,42.60
2018-01-31T04:44:11.826Z,40.00
2018-01-31T04:46:39.764Z,42.17
2018-01-31T04:49:07.467Z,42.05
2018-01-31T04:51:34.410Z,40.70
2018-01-31T04:54:01.345Z,39.22
2018-01-31T04:56:28.253Z,40.72
2018-01-31T04:58:55.950Z,41.63
2018-01-31T05:01:22.864Z,38.88
2018-01-31T05:03:50.557Z,39.50
2018-01-31T05:06:17.466Z,42.17
2018-01-31T05:08:45.194Z,37.67
2018-01-31T05:11:12.109Z,38.92
2018-01-31T05:13:39.054Z,34.75
2018-01-31T05:16:05.960Z,39.33
2018-01-31T05:18:33.655Z,38.83
2018-01-31T05:21:00.565Z,34.72
2018-01-31T05:23:28.256Z,37.22
2018-01-31T05:25:55.164Z,34.15
2018-01-31T05:28:23.059Z,36.20
2018-01-31T05:30:49.973Z,33.28
2018-01-31T05:33:16.904Z,35.70
2018-01-31T05:35:43.812Z,38.22
2018-01-31T05:38:10.744Z,37.00
2018-01-31T05:40:37.649Z,36.65
2018-01-31T05:43:04.581Z,35.00
2018-01-31T05:45:32.254Z,32.53
2018-01-31T05:47:59.187Z,33.67
2018-01-31T05:50:26.101Z,34.00
2018-01-31T05:52:53.032Z,31.17
2018-01-31T05:55:19.935Z,31.05
2018-01-31T05:57:46.858Z,34.63
2018-01-31T06:00:13.762Z,30.80
2018-01-31T06:02:40.696Z,31.80
2018-01-31T06:05:08.505Z,29.70
2018-01-31T06:07:35.435Z,28.27
2018-01-31T06:10:03.247Z,31.95
2018-01-31T06:12:30.935Z,29.95
2018-01-31T06:14:57.841Z,30.10
2018-01-31T06:17:24.771Z,28.80
2018-01-31T06:19:51.671Z,26.75
2018-01-31T06:22:18.599Z,24.92
2018-01-31T06:24:46.269Z,26.80
2018-01-31T06:27:13.199Z,26.48
2018-01-31T06:29:40.867Z,27.08
2018-01-31T06:32:09.567Z,24.45
2018-01-31T06:34:36.471Z,24.67
2018-01-31T06:37:03.400Z,25.75
2018-01-31T06:39:30.304Z,22.85
2018-01-31T06:41:57.260Z,24.25
2018-01-31T06:44:24.174Z,24.52
2018-01-31T06:46:51.872Z,24.20
2018-01-31T06:49:18.811Z,24.20
2018-01-31T06:51:45.736Z,23.75
2018-01-31T06:54:12.679Z,24.25
2018-01-31T06:56:39.612Z,24.90
2018-01-31T06:59:08.280Z,23.35
2018-01-31T07:01:35.232Z,24.20
2018-01-31T07:04:03.096Z,24.15
2018-01-31T07:06:30.768Z,23.73
2018-01-31T07:08:58.464Z,22.55
2018-01-31T07:11:25.392Z,23.12
2018-01-31T07:13:52.300Z,23.55
2018-01-31T07:16:19.236Z,23.50
2018-01-31T07:18:46.146Z,23.98
2018-01-31T07:21:13.097Z,25.70
2018-01-31T07:23:40.012Z,25.17
2018-01-31T07:26:06.925Z,23.05
2018-01-31T07:28:33.871Z,24.10
2018-01-31T07:31:00.772Z,23.10
2018-01-31T07:33:27.699Z,22.13
2018-01-31T07:35:55.532Z,24.80
2018-01-31T07:38:23.236Z,23.70
2018-01-31T07:40:50.146Z,23.40
2018-01-31T07:43:18.844Z,21.42
2018-01-31T07:45:46.684Z,22.52
2018-01-31T07:48:13.633Z,21.25
2018-01-31T07:50:41.333Z,17.60
2018-01-31T07:53:08.240Z,18.40
2018-01-31T07:55:35.924Z,18.85
2018-01-31T07:58:02.855Z,15.98
2018-01-31T08:00:30.546Z,19.15
2018-01-31T08:02:57.452Z,18.23
2018-01-31T08:05:25.150Z,18.37
2018-01-31T08:07:52.051Z,14.82
2018-01-31T08:10:19.000Z,14.45
2018-01-31T08:12:46.676Z,14.70
2018-01-31T08:15:13.620Z,13.75
2018-01-31T08:17:41.295Z,12.75
2018-01-31T08:20:08.228Z,12.85
2018-01-31T08:22:35.928Z,12.00
2018-01-31T08:25:02.833Z,10.60
2018-01-31T08:27:30.528Z,10.38
2018-01-31T08:29:58.443Z,10.05
2018-01-31T08:32:25.373Z,8.63
2018-01-31T08:34:52.282Z,8.35
2018-01-31T08:37:19.219Z,9.23
2018-01-31T08:39:46.123Z,9.13
2018-01-31T08:42:14.020Z,8.27
2018-01-31T08:44:40.948Z,8.38
2018-01-31T08:47:08.645Z,7.85
2018-01-31T08:49:35.548Z,8.35
2018-01-31T08:52:04.285Z,8.82
2018-01-31T08:54:33.017Z,8.43
2018-01-31T08:57:00.717Z,8.65
2018-01-31T08:59:29.568Z,7.80
2018-01-31T09:01:58.275Z,8.52
2018-01-31T09:04:25.180Z,7.62
2018-01-31T09:06:52.119Z,7.95
2018-01-31T09:09:19.054Z,8.52
2018-01-31T09:11:46.975Z,7.90
2018-01-31T09:14:14.823Z,7.30
2018-01-31T09:16:42.520Z,8.32
2018-01-31T09:19:09.420Z,9.65
2018-01-31T09:21:36.347Z,9.93
2018-01-31T09:24:03.260Z,9.77
2018-01-31T09:26:30.195Z,9.05
2018-01-31T09:28:57.096Z,9.68
2018-01-31T09:31:24.986Z,9.32
2018-01-31T09:33:53.879Z,11.77
2018-01-31T09:36:20.808Z,10.07
2018-01-31T09:38:48.482Z,10.10
2018-01-31T09:41:16.152Z,9.90
2018-01-31T09:43:43.085Z,10.82
2018-01-31T09:46:10.751Z,10.90
2018-01-31T09:48:38.470Z,10.77
2018-01-31T09:51:05.384Z,10.00
2018-01-31T09:53:33.396Z,10.00
2018-01-31T09:56:00.304Z,10.88
2018-01-31T09:58:27.240Z,9.88
2018-01-31T10:00:54.168Z,10.93
2018-01-31T10:03:22.040Z,9.35
2018-01-31T10:05:49.898Z,9.18
2018-01-31T10:08:17.739Z,12.10
2018-01-31T10:10:46.427Z,11.05
2018-01-31T10:13:14.120Z,9.60
2018-01-31T10:15:41.036Z,12.82
2018-01-31T10:18:08.877Z,12.40
2018-01-31T10:20:35.783Z,11.00
2018-01-31T10:23:02.722Z,12.52
2018-01-31T10:25:29.632Z,11.35
2018-01-31T10:27:57.338Z,10.55
2018-01-31T10:30:24.248Z,10.80
2018-01-31T10:32:52.843Z,8.45
2018-01-31T10:35:19.756Z,10.80
2018-01-31T10:37:46.686Z,11.07
2018-01-31T10:40:13.616Z,10.57
2018-01-31T10:42:40.552Z,9.90
2018-01-31T10:45:07.455Z,10.50
2018-01-31T10:47:35.162Z,10.88
2018-01-31T10:50:02.070Z,9.55
2018-01-31T10:52:29.932Z,9.80
2018-01-31T10:57:29.122Z,10.02
2018-01-31T10:59:50.792Z,9.20
2018-01-31T11:02:17.728Z,8.07
2018-01-31T11:04:44.640Z,9.82
2018-01-31T11:07:12.351Z,9.65
2018-01-31T11:09:39.285Z,8.63
2018-01-31T11:12:06.196Z,7.60
2018-01-31T11:14:33.922Z,9.40
2018-01-31T11:17:00.831Z,8.15
2018-01-31T11:19:27.759Z,6.47
2018-01-31T11:21:54.670Z,7.70
2018-01-31T11:24:21.596Z,4.68
2018-01-31T11:26:48.508Z,6.07
2018-01-31T11:29:15.453Z,5.47
2018-01-31T11:31:42.396Z,5.72
2018-01-31T11:34:09.324Z,6.43
2018-01-31T11:36:36.231Z,5.82
2018-01-31T11:39:03.165Z,5.93
2018-01-31T11:41:30.083Z,4.97
2018-01-31T11:43:57.937Z,5.60
2018-01-31T11:46:24.839Z,4.55
2018-01-31T11:48:52.539Z,5.50
2018-01-31T11:51:19.509Z,3.95
2018-01-31T11:53:46.401Z,4.87
2018-01-31T11:56:13.303Z,4.95
2018-01-31T11:58:40.245Z,3.70
2018-01-31T12:01:07.157Z,5.20
2018-01-31T12:03:34.096Z,4.87
2018-01-31T12:06:01.040Z,4.97
2018-01-31T12:08:28.006Z,3.65
2018-01-31T12:10:54.924Z,3.83
2018-01-31T12:13:35.819Z,4.43
2018-01-31T12:16:15.628Z,4.80
2018-01-31T12:18:55.192Z,4.78
2018-01-31T12:21:33.996Z,2.65
2018-01-31T12:24:13.558Z,1.10
2018-01-31T12:29:54.424Z,0.57
2018-01-31T12:35:32.260Z,0.77
2018-01-31T12:38:12.029Z,0.57
2018-01-31T12:40:40.384Z,0.70
2018-01-31T12:43:06.833Z,0.80
2018-01-31T12:45:33.262Z,0.70
2018-01-31T12:48:03.904Z,0.60
2018-01-31T12:50:42.776Z,0.80
2018-01-31T12:53:21.675Z,1.00
2018-01-31T12:56:00.528Z,0.68
2018-01-31T12:58:49.871Z,1.05
2018-01-31T13:01:38.392Z,1.05
2018-01-31T13:04:17.068Z,1.27
2018-01-31T13:09:55.307Z,0.55
2018-01-31T13:12:36.203Z,1.12
2018-01-31T13:15:14.920Z,1.20
2018-01-31T13:18:00.716Z,0.70
2018-01-31T13:20:39.624Z,1.45
2018-01-31T13:23:07.564Z,1.40
2018-01-31T13:25:46.292Z,1.00
2018-01-31T13:28:25.208Z,1.60
2018-01-31T13:31:04.023Z,1.50
2018-01-31T13:33:43.670Z,1.20
2018-01-31T13:36:22.478Z,1.77
2018-01-31T13:39:02.115Z,1.45
2018-01-31T13:41:43.516Z,1.62
2018-01-31T13:44:22.293Z,1.15
2018-01-31T13:47:02.104Z,1.25
2018-01-31T13:49:40.821Z,2.22
2018-01-31T13:52:19.481Z,1.75
2018-01-31T13:54:58.399Z,1.25
2018-01-31T13:57:37.324Z,1.75
2018-01-31T14:00:16.283Z,1.92
2018-01-31T14:02:55.986Z,2.20
2018-01-31T14:05:45.502Z,1.67
2018-01-31T14:08:25.072Z,1.95
2018-01-31T14:14:00.768Z,2.00
2018-01-31T14:16:41.572Z,2.00
2018-01-31T14:19:20.228Z,2.95
2018-01-31T14:21:59.148Z,6.95
2018-01-31T14:24:37.876Z,2.40
2018-01-31T14:27:16.864Z,8.82
2018-01-31T14:29:55.708Z,3.67
2018-01-31T14:32:35.416Z,3.35
2018-01-31T14:35:14.339Z,3.47
2018-01-31T14:37:40.784Z,2.22
2018-01-31T14:40:07.208Z,3.05
2018-01-31T14:42:33.656Z,3.15
2018-01-31T14:45:01.044Z,4.20
2018-01-31T14:47:27.508Z,3.70
2018-01-31T14:49:53.956Z,3.10
2018-01-31T14:52:21.393Z,3.42
2018-01-31T14:54:47.824Z,3.30
2018-01-31T14:57:14.284Z,4.18
2018-01-31T14:59:40.725Z,4.40
2018-01-31T15:02:08.144Z,2.53
2018-01-31T15:04:34.568Z,2.75
2018-01-31T15:07:00.998Z,3.10
2018-01-31T15:09:29.356Z,3.12
2018-01-31T15:11:56.572Z,2.70
2018-01-31T15:14:23.011Z,3.05
2018-01-31T15:16:50.432Z,2.20
2018-01-31T15:19:16.847Z,2.17
2018-01-31T15:21:43.299Z,1.90
2018-01-31T15:24:09.712Z,1.80
2018-01-31T15:26:37.084Z,1.60
2018-01-31T15:29:04.257Z,1.35
2018-01-31T15:31:31.700Z,2.00
2018-01-31T15:33:58.122Z,1.55
2018-01-31T15:36:24.580Z,1.85
2018-01-31T15:38:51.008Z,1.65
2018-01-31T15:41:17.443Z,1.23
2018-01-31T15:43:43.856Z,1.60
2018-01-31T15:46:10.304Z,0.40
2018-01-31T15:48:36.717Z,0.40
2018-01-31T15:51:03.155Z,0.30
2018-01-31T15:53:29.572Z,0.45
2018-01-31T15:55:56.010Z,0.40
2018-01-31T15:58:22.436Z,0.62
2018-01-31T16:00:48.879Z,0.40
2018-01-31T16:03:15.296Z,0.40
2018-01-31T16:05:41.744Z,0.70
2018-01-31T16:08:08.167Z,0.82
2018-01-31T16:10:34.608Z,1.98
2018-01-31T16:13:01.963Z,1.10
2018-01-31T16:15:28.416Z,0.80
2018-01-31T16:17:56.320Z,1.25
2018-01-31T16:20:36.042Z,1.10
2018-01-31T16:23:03.937Z,0.70
2018-01-31T16:25:32.840Z,0.80
2018-01-31T16:28:11.556Z,0.50
2018-01-31T16:30:48.159Z,1.60
2018-01-31T16:33:28.336Z,0.80
2018-01-31T16:35:55.268Z,0.60
2018-01-31T16:38:22.187Z,1.10
2018-01-31T16:40:52.560Z,0.65
2018-01-31T16:43:19.485Z,0.70
2018-01-31T16:45:46.412Z,1.10
2018-01-31T16:48:13.312Z,0.60
2018-01-31T16:50:41.021Z,1.00
2018-01-31T16:53:07.960Z,0.62
2018-01-31T16:55:34.923Z,0.60
2018-01-31T16:58:01.833Z,1.05
2018-01-31T17:00:28.771Z,1.50
2018-01-31T17:02:57.463Z,0.40
2018-01-31T17:05:25.308Z,0.80
2018-01-31T17:07:52.242Z,1.25
2018-01-31T17:10:19.177Z,1.58
2018-01-31T17:12:46.082Z,0.80
2018-01-31T17:15:13.774Z,0.80
2018-01-31T17:17:40.672Z,0.60
2018-01-31T17:20:07.604Z,0.60
2018-01-31T17:22:34.531Z,1.05
2018-01-31T17:25:02.448Z,1.02
2018-01-31T17:27:29.352Z,0.88
2018-01-31T17:29:56.289Z,1.00
2018-01-31T17:32:23.196Z,1.12
2018-01-31T17:34:50.131Z,0.90
2018-01-31T17:37:17.972Z,1.30
2018-01-31T17:39:44.900Z,1.60
2018-01-31T17:42:13.819Z,1.33
2018-01-31T17:44:40.765Z,1.85
2018-01-31T17:47:08.436Z,1.67
2018-01-31T17:49:35.373Z,1.70
2018-01-31T17:52:03.219Z,1.40
2018-01-31T17:54:30.134Z,2.65
2018-01-31T17:56:58.031Z,1.60
2018-01-31T17:59:25.732Z,1.83
2018-01-31T18:01:53.540Z,1.62
2018-01-31T18:04:20.468Z,1.05
2018-01-31T18:06:47.406Z,1.50
2018-01-31T18:09:15.268Z,2.00
2018-01-31T18:11:42.177Z,1.33
2018-01-31T18:14:09.116Z,1.98
2018-01-31T18:16:36.792Z,1.95
2018-01-31T18:19:03.728Z,1.90
2018-01-31T18:21:30.644Z,1.30
2018-01-31T18:23:57.579Z,2.05
2018-01-31T18:26:24.479Z,1.80
2018-01-31T18:28:51.403Z,2.30
2018-01-31T18:31:18.299Z,1.80
2018-01-31T18:33:45.226Z,1.37
2018-01-31T18:36:13.147Z,2.12
2018-01-31T18:38:40.848Z,4.22
2018-01-31T18:41:08.768Z,1.70
2018-01-31T18:43:36.664Z,2.00
2018-01-31T18:46:03.592Z,2.03
2018-01-31T18:48:31.449Z,2.35
2018-01-31T18:50:59.148Z,1.95
2018-01-31T18:53:26.137Z,2.22
2018-01-31T18:55:53.076Z,2.12
2018-01-31T18:58:20.042Z,3.65
2018-01-31T19:00:46.972Z,2.50
2018-01-31T19:03:13.972Z,2.22
2018-01-31T19:05:40.945Z,1.75
2018-01-31T19:08:07.900Z,2.00
2018-01-31T19:10:34.807Z,1.35
2018-01-31T19:13:01.748Z,2.97
2018-01-31T19:15:29.592Z,1.77
2018-01-31T19:17:57.308Z,2.90
2018-01-31T19:20:27.563Z,3.28
2018-01-31T19:22:54.515Z,2.58
2018-01-31T19:25:22.198Z,2.20
2018-01-31T19:27:51.110Z,2.10
2018-01-31T19:30:18.025Z,2.72
2018-01-31T19:32:44.983Z,2.30
2018-01-31T19:35:11.927Z,3.10
2018-01-31T19:37:38.866Z,2.50
2018-01-31T19:40:05.776Z,2.20
2018-01-31T19:42:32.719Z,2.90
2018-01-31T19:45:00.542Z,3.20
2018-01-31T19:47:27.480Z,3.10
2018-01-31T19:49:54.389Z,3.55
2018-01-31T19:52:22.124Z,3.40
2018-01-31T19:54:49.065Z,2.55
2018-01-31T19:57:21.674Z,3.10
2018-01-31T19:59:49.473Z,2.78
2018-01-31T20:02:18.358Z,3.22
2018-01-31T20:04:45.267Z,3.58
2018-01-31T20:07:13.907Z,2.90
2018-01-31T20:09:40.837Z,5.62
2018-01-31T20:12:07.781Z,2.75
2018-01-31T20:14:34.690Z,2.80
2018-01-31T20:17:03.408Z,3.03
2018-01-31T20:19:30.322Z,2.78
2018-01-31T20:21:58.032Z,3.60
2018-01-31T20:24:24.959Z,2.78
2018-01-31T20:26:57.741Z,3.28
2018-01-31T20:29:24.671Z,3.80
2018-01-31T20:31:51.606Z,3.20
2018-01-31T20:34:19.335Z,3.03
2018-01-31T20:36:46.256Z,3.37
2018-01-31T20:39:13.169Z,2.80
2018-01-31T20:41:40.870Z,2.95
2018-01-31T20:44:07.791Z,3.10
2018-01-31T20:46:34.720Z,2.85
2018-01-31T20:49:02.545Z,2.60
2018-01-31T20:51:30.251Z,2.85
2018-01-31T20:53:59.115Z,2.75
2018-01-31T20:56:26.828Z,3.53
2018-01-31T20:58:53.731Z,2.70
2018-01-31T21:01:21.445Z,2.35
2018-01-31T21:03:48.368Z,2.20
2018-01-31T21:06:15.291Z,3.97
2018-01-31T21:08:42.266Z,3.20
2018-01-31T21:11:09.204Z,2.40
2018-01-31T21:13:36.113Z,3.90
2018-01-31T21:16:03.073Z,3.17
2018-01-31T21:18:30.001Z,2.65
2018-01-31T21:20:56.940Z,2.60
2018-01-31T21:23:24.616Z,0.88
2018-01-31T21:25:52.313Z,2.97
2018-01-31T21:28:19.221Z,2.58
2018-01-31T21:30:48.082Z,3.78
2018-01-31T21:33:15.791Z,1.45
2018-01-31T21:35:43.745Z,3.05
2018-01-31T21:38:10.649Z,3.15
2018-01-31T21:40:39.577Z,3.08
2018-01-31T21:43:07.552Z,2.22
2018-01-31T21:45:34.453Z,2.80
2018-01-31T21:48:02.180Z,2.10
2018-01-31T21:50:29.141Z,1.73
2018-01-31T21:52:56.097Z,1.85
2018-01-31T21:55:23.040Z,2.22
2018-01-31T21:57:54.932Z,1.87
2018-01-31T22:00:21.860Z,1.20
2018-01-31T22:02:49.535Z,1.33
2018-01-31T22:05:16.471Z,1.42
2018-01-31T22:07:46.064Z,1.80
2018-01-31T22:10:13.795Z,1.85
2018-01-31T22:12:40.710Z,1.85
2018-01-31T22:15:07.617Z,2.17
2018-01-31T22:17:35.322Z,2.00
2018-01-31T22:20:02.252Z,2.37
2018-01-31T22:22:29.168Z,2.87
2018-01-31T22:24:56.895Z,2.78
2018-01-31T22:27:24.806Z,3.37
2018-01-31T22:29:52.516Z,2.87
2018-01-31T22:32:20.436Z,3.83
2018-01-31T22:34:47.367Z,3.97
2018-01-31T22:37:14.284Z,4.70
2018-01-31T22:39:41.217Z,5.57
2018-01-31T22:42:08.147Z,6.60
2018-01-31T22:44:36.036Z,6.07
2018-01-31T22:47:02.944Z,6.35
2018-01-31T22:49:29.884Z,7.30
2018-01-31T22:51:56.799Z,7.20
2018-01-31T22:54:23.740Z,6.90
2018-01-31T22:56:50.652Z,7.43
2018-01-31T22:59:17.594Z,7.20
2018-01-31T23:01:45.512Z,6.55
2018-01-31T23:04:13.212Z,6.97
2018-01-31T23:06:40.120Z,6.62
2018-01-31T23:09:07.820Z,7.80
2018-01-31T23:11:34.748Z,5.60
2018-01-31T23:14:02.633Z,6.75
2018-01-31T23:16:29.552Z,5.87
2018-01-31T23:18:56.461Z,6.82
2018-01-31T23:21:23.390Z,6.05
2018-01-31T23:23:50.294Z,5.82
2018-01-31T23:26:17.237Z,5.12
2018-01-31T23:28:44.135Z,5.28
2018-01-31T23:31:11.051Z,5.22
2018-01-31T23:33:37.975Z,4.32
2018-01-31T23:36:05.644Z,4.82
2018-01-31T23:38:34.256Z,5.10
2018-01-31T23:41:01.147Z,3.97
2018-01-31T23:43:28.072Z,5.00
2018-01-31T23:45:55.969Z,4.43
2018-01-31T23:48:23.855Z,5.03
2018-01-31T23:50:51.531Z,4.43
2018-01-31T23:53:18.469Z,4.62
2018-01-31T23:55:45.386Z,4.25
2018-01-31T23:58:12.312Z,5.30
